createdAt,value
2022-11-16T00:01:09.000Z,157.23
2022-11-16T00:03:36.812Z,147.05
2022-11-16T00:06:06.397Z,148.85
2022-11-16T00:08:37.011Z,154.83
2022-11-16T00:11:18.043Z,154.80
2022-11-16T00:13:45.889Z,146.32
2022-11-16T00:16:16.456Z,142.93
2022-11-16T00:18:44.300Z,128.65
2022-11-16T00:21:11.779Z,152.33
2022-11-16T00:23:39.611Z,125.53
2022-11-16T00:26:09.314Z,127.93
2022-11-16T00:28:36.891Z,136.62
2022-11-16T00:31:06.493Z,127.97
2022-11-16T00:33:34.689Z,129.93
2022-11-16T00:36:11.399Z,125.62
2022-11-16T00:38:39.868Z,142.82
2022-11-16T00:41:07.950Z,116.85
2022-11-16T00:43:36.295Z,129.00
2022-11-16T00:46:04.547Z,112.93
2022-11-16T00:48:32.409Z,116.28
2022-11-16T00:51:00.306Z,119.50
2022-11-16T00:53:28.014Z,122.03
2022-11-16T00:55:55.523Z,119.05
2022-11-16T00:58:23.113Z,107.47
2022-11-16T01:00:51.346Z,120.18
2022-11-16T01:03:19.011Z,110.15
2022-11-16T01:05:47.080Z,100.50
2022-11-16T01:08:15.173Z,98.43
2022-11-16T01:10:42.685Z,95.53
2022-11-16T01:13:11.592Z,111.95
2022-11-16T01:15:39.395Z,112.22
2022-11-16T01:18:06.866Z,104.57
2022-11-16T01:20:34.310Z,103.28
2022-11-16T01:23:02.082Z,100.77
2022-11-16T01:25:29.531Z,106.85
2022-11-16T01:27:56.987Z,101.43
2022-11-16T01:30:25.093Z,102.65
2022-11-16T01:32:53.605Z,103.25
2022-11-16T01:35:21.188Z,125.73
2022-11-16T01:37:49.526Z,112.22
2022-11-16T01:40:17.207Z,122.68
2022-11-16T01:42:44.827Z,129.63
2022-11-16T01:45:29.180Z,123.85
2022-11-16T01:47:57.215Z,119.97
2022-11-16T01:50:25.459Z,128.15
2022-11-16T01:52:57.611Z,118.70
2022-11-16T01:55:27.819Z,109.78
2022-11-16T01:57:56.638Z,108.50
2022-11-16T02:00:24.268Z,100.17
2022-11-16T02:02:52.399Z,104.05
2022-11-16T02:05:22.694Z,103.75
2022-11-16T02:08:31.980Z,106.63
2022-11-16T02:11:07.693Z,105.97
2022-11-16T02:13:51.408Z,121.30
2022-11-16T02:16:35.445Z,116.03
2022-11-16T02:19:25.169Z,103.43
2022-11-16T02:22:09.268Z,103.68
2022-11-16T02:25:12.444Z,109.93
2022-11-16T02:28:12.069Z,94.83
2022-11-16T02:30:44.281Z,90.70
2022-11-16T02:33:13.768Z,94.93
2022-11-16T02:35:47.886Z,97.78
2022-11-16T02:38:20.406Z,100.62
2022-11-16T02:40:53.004Z,90.43
2022-11-16T02:43:34.982Z,88.80
2022-11-16T02:46:05.925Z,74.10
2022-11-16T02:48:43.691Z,76.22
2022-11-16T02:51:11.599Z,69.68
2022-11-16T02:53:52.585Z,71.70
2022-11-16T02:56:20.486Z,67.75
2022-11-16T02:58:48.122Z,64.50
2022-11-16T03:01:22.240Z,70.90
2022-11-16T03:03:54.415Z,70.43
2022-11-16T03:06:30.001Z,65.90
2022-11-16T03:09:07.829Z,64.82
2022-11-16T03:11:55.389Z,67.93
2022-11-16T03:14:25.780Z,71.12
2022-11-16T03:16:57.007Z,72.95
2022-11-16T03:19:42.707Z,69.87
2022-11-16T03:22:30.920Z,71.28
2022-11-16T03:24:58.847Z,74.00
2022-11-16T03:28:08.129Z,74.62
2022-11-16T03:30:40.949Z,71.57
2022-11-16T03:33:11.631Z,69.43
2022-11-16T03:35:49.670Z,77.10
2022-11-16T03:38:19.136Z,74.22
2022-11-16T03:40:47.730Z,82.93
2022-11-16T03:43:16.015Z,74.87
2022-11-16T03:45:44.261Z,72.93
2022-11-16T03:48:12.559Z,67.15
2022-11-16T03:50:41.190Z,70.68
2022-11-16T03:53:09.323Z,65.12
2022-11-16T03:55:37.689Z,65.50
2022-11-16T03:58:05.857Z,62.27
2022-11-16T04:00:34.014Z,69.25
2022-11-16T04:03:07.197Z,67.30
2022-11-16T04:05:53.521Z,62.85
2022-11-16T04:08:39.842Z,61.97
2022-11-16T04:11:30.684Z,55.30
2022-11-16T04:14:17.049Z,69.60
2022-11-16T04:17:02.972Z,63.17
2022-11-16T04:19:50.929Z,59.92
2022-11-16T04:22:44.340Z,65.78
2022-11-16T04:25:16.080Z,63.73
2022-11-16T04:28:02.046Z,65.00
2022-11-16T04:30:50.045Z,65.70
2022-11-16T04:33:36.946Z,64.85
2022-11-16T04:36:23.450Z,62.67
2022-11-16T04:38:51.003Z,58.80
2022-11-16T04:41:37.414Z,64.03
2022-11-16T04:44:04.904Z,60.05
2022-11-16T04:46:51.690Z,66.07
2022-11-16T04:49:19.339Z,68.55
2022-11-16T04:51:47.582Z,78.13
2022-11-16T04:54:15.543Z,74.12
2022-11-16T04:56:43.131Z,74.68
2022-11-16T04:59:11.205Z,71.47
2022-11-16T05:01:57.662Z,69.78
2022-11-16T05:04:25.463Z,76.03
2022-11-16T05:06:53.042Z,72.82
2022-11-16T05:09:20.610Z,73.95
2022-11-16T05:11:48.419Z,71.62
2022-11-16T05:14:15.889Z,80.38
2022-11-16T05:16:43.757Z,74.70
2022-11-16T05:19:30.413Z,71.78
2022-11-16T05:21:58.830Z,78.07
2022-11-16T05:24:35.436Z,76.03
2022-11-16T05:27:13.019Z,74.97
2022-11-16T05:29:42.055Z,78.67
2022-11-16T05:32:11.807Z,78.47
2022-11-16T05:34:39.966Z,81.05
2022-11-16T05:37:08.014Z,71.20
2022-11-16T05:39:35.960Z,71.45
2022-11-16T05:42:04.519Z,78.27
2022-11-16T05:44:33.117Z,79.28
2022-11-16T05:47:01.106Z,79.03
2022-11-16T05:49:28.890Z,82.97
2022-11-16T05:51:56.694Z,78.37
2022-11-16T05:54:25.939Z,77.67
2022-11-16T05:56:54.666Z,80.15
2022-11-16T05:59:23.925Z,73.00
2022-11-16T06:01:51.718Z,73.00
2022-11-16T06:04:24.647Z,88.85
2022-11-16T06:06:53.895Z,77.43
2022-11-16T06:09:21.785Z,81.30
2022-11-16T06:11:49.747Z,84.57
2022-11-16T06:14:17.266Z,74.15
2022-11-16T06:16:45.027Z,71.93
2022-11-16T06:19:12.696Z,74.33
2022-11-16T06:21:40.277Z,79.43
2022-11-16T06:24:09.629Z,79.65
2022-11-16T06:26:37.383Z,83.03
2022-11-16T06:29:05.191Z,78.15
2022-11-16T06:31:33.719Z,66.40
2022-11-16T06:34:01.321Z,68.30
2022-11-16T06:36:29.187Z,76.75
2022-11-16T06:39:00.342Z,77.00
2022-11-16T06:41:28.054Z,72.18
2022-11-16T06:43:56.849Z,80.17
2022-11-16T06:46:25.665Z,76.40
2022-11-16T06:48:53.356Z,82.07
2022-11-16T06:51:20.857Z,79.22
2022-11-16T06:53:48.724Z,81.35
2022-11-16T06:56:16.561Z,71.93
2022-11-16T06:58:45.022Z,77.20
2022-11-16T07:01:13.500Z,76.93
2022-11-16T07:03:41.465Z,69.90
2022-11-16T07:06:11.302Z,70.37
2022-11-16T07:08:39.431Z,72.17
2022-11-16T07:11:08.665Z,77.62
2022-11-16T07:13:37.406Z,80.62
2022-11-16T07:16:10.101Z,77.47
2022-11-16T07:18:40.727Z,76.97
2022-11-16T07:21:11.430Z,76.07
2022-11-16T07:23:39.088Z,79.00
2022-11-16T07:26:10.163Z,82.93
2022-11-16T07:28:46.725Z,87.75
2022-11-16T07:31:16.955Z,84.70
2022-11-16T07:33:44.873Z,83.77
2022-11-16T07:36:16.714Z,81.70
2022-11-16T07:38:44.627Z,72.30
2022-11-16T07:41:18.265Z,77.70
2022-11-16T07:43:52.596Z,77.72
2022-11-16T07:49:19.488Z,75.72
2022-11-16T07:51:50.990Z,69.37
2022-11-16T07:54:19.294Z,73.45
2022-11-16T07:56:47.338Z,74.60
2022-11-16T07:59:14.940Z,76.33
2022-11-16T08:01:47.252Z,81.37
2022-11-16T08:04:17.515Z,82.28
2022-11-16T08:06:49.079Z,75.15
2022-11-16T08:09:18.325Z,82.28
2022-11-16T08:11:47.129Z,70.13
2022-11-16T08:14:15.790Z,76.95
2022-11-16T08:16:43.642Z,83.70
2022-11-16T08:19:12.891Z,81.85
2022-11-16T08:21:40.365Z,83.25
2022-11-16T08:24:08.619Z,78.93
2022-11-16T08:26:36.749Z,86.78
2022-11-16T08:29:04.685Z,117.25
2022-11-16T08:31:34.049Z,92.35
2022-11-16T08:34:02.199Z,101.60
2022-11-16T08:36:33.628Z,94.80
2022-11-16T08:39:02.265Z,76.82
2022-11-16T08:41:30.935Z,75.43
2022-11-16T08:43:59.390Z,73.35
2022-11-16T08:46:27.235Z,66.78
2022-11-16T08:48:57.112Z,72.63
2022-11-16T08:51:25.402Z,70.57
2022-11-16T08:53:58.737Z,66.93
2022-11-16T08:56:27.458Z,62.22
2022-11-16T08:58:58.593Z,66.37
2022-11-16T09:01:28.951Z,64.87
2022-11-16T09:03:57.300Z,74.90
2022-11-16T09:06:26.788Z,70.47
2022-11-16T09:08:54.824Z,74.85
2022-11-16T09:11:23.986Z,112.15
2022-11-16T09:13:53.638Z,71.40
2022-11-16T09:16:21.498Z,91.07
2022-11-16T09:18:50.823Z,77.82
2022-11-16T09:21:20.416Z,82.00
2022-11-16T09:23:48.865Z,84.85
2022-11-16T09:26:19.142Z,76.57
2022-11-16T09:28:47.859Z,72.55
2022-11-16T09:31:20.295Z,73.00
2022-11-16T09:33:51.447Z,59.53
2022-11-16T09:36:20.643Z,63.25
2022-11-16T09:39:25.809Z,72.80
2022-11-16T09:42:16.297Z,70.82
2022-11-16T09:44:43.716Z,61.92
2022-11-16T09:47:22.585Z,64.50
2022-11-16T09:50:01.553Z,63.55
2022-11-16T09:52:34.799Z,76.23
2022-11-16T09:55:26.342Z,76.25
2022-11-16T09:57:56.252Z,70.85
2022-11-16T10:00:24.360Z,67.10
2022-11-16T10:03:17.229Z,72.18
2022-11-16T10:05:52.026Z,66.50
2022-11-16T10:08:38.922Z,75.35
2022-11-16T10:11:42.799Z,66.10
2022-11-16T10:14:41.377Z,63.47
2022-11-16T10:17:14.888Z,55.42
2022-11-16T10:20:05.009Z,57.80
2022-11-16T10:22:51.923Z,56.60
2022-11-16T10:25:25.254Z,55.10
2022-11-16T10:28:14.777Z,55.58
2022-11-16T10:30:59.972Z,61.25
2022-11-16T10:33:35.584Z,58.33
2022-11-16T10:36:11.976Z,57.25
2022-11-16T10:38:40.569Z,57.58
2022-11-16T10:41:40.289Z,64.40
2022-11-16T10:44:24.589Z,53.83
2022-11-16T10:47:00.701Z,63.03
2022-11-16T10:49:50.216Z,56.72
2022-11-16T10:52:18.110Z,58.65
2022-11-16T10:54:45.727Z,58.47
2022-11-16T10:57:17.601Z,71.57
2022-11-16T10:59:48.347Z,57.00
2022-11-16T11:02:25.292Z,64.87
2022-11-16T11:05:02.375Z,57.62
2022-11-16T11:07:35.843Z,67.32
2022-11-16T11:10:05.188Z,50.72
2022-11-16T11:12:39.180Z,68.90
2022-11-16T11:15:28.462Z,61.30
2022-11-16T11:18:15.406Z,71.97
2022-11-16T11:20:47.297Z,51.35
2022-11-16T11:23:23.126Z,58.72
2022-11-16T11:25:51.643Z,51.93
2022-11-16T11:28:34.131Z,54.38
2022-11-16T11:31:04.293Z,51.58
2022-11-16T11:33:44.224Z,50.03
2022-11-16T11:36:21.816Z,49.50
2022-11-16T11:39:08.305Z,50.60
2022-11-16T11:41:44.148Z,48.10
2022-11-16T11:44:20.971Z,55.10
2022-11-16T11:47:50.398Z,56.37
2022-11-16T11:49:43.188Z,53.70
2022-11-16T11:52:17.680Z,49.17
2022-11-16T11:54:49.286Z,52.80
2022-11-16T11:57:23.387Z,85.68
2022-11-16T11:59:53.382Z,68.00
2022-11-16T12:02:47.310Z,49.50
2022-11-16T12:05:43.194Z,47.87
2022-11-16T12:08:26.374Z,50.55
2022-11-16T12:11:03.188Z,49.22
2022-11-16T12:13:37.103Z,52.33
2022-11-16T12:16:17.121Z,53.30
2022-11-16T12:19:05.267Z,53.27
2022-11-16T12:21:51.331Z,47.85
2022-11-16T12:24:53.391Z,46.40
2022-11-16T12:27:34.484Z,50.22
2022-11-16T12:30:17.967Z,58.75
2022-11-16T12:32:58.181Z,55.57
2022-11-16T12:35:31.157Z,52.72
2022-11-16T12:38:27.663Z,54.08
2022-11-16T12:41:18.697Z,53.35
2022-11-16T12:43:56.131Z,66.00
2022-11-16T12:46:33.633Z,53.23
2022-11-16T12:49:29.732Z,52.92
2022-11-16T12:52:09.408Z,52.42
2022-11-16T12:55:26.915Z,62.55
2022-11-16T12:58:08.572Z,55.78
2022-11-16T13:00:48.062Z,88.27
2022-11-16T13:03:33.537Z,87.78
2022-11-16T13:06:09.392Z,58.70
2022-11-16T13:08:52.200Z,51.05
2022-11-16T13:11:27.397Z,63.10
2022-11-16T13:14:01.659Z,54.70
2022-11-16T13:16:30.100Z,69.40
2022-11-16T13:18:58.672Z,69.40
2022-11-16T13:21:44.680Z,61.67
2022-11-16T13:24:38.302Z,62.25
2022-11-16T13:27:15.404Z,65.70
2022-11-16T13:30:00.725Z,110.75
2022-11-16T13:32:52.718Z,184.45
2022-11-16T13:35:21.063Z,134.00
2022-11-16T13:37:50.588Z,97.32
2022-11-16T13:40:23.218Z,61.03
2022-11-16T13:43:12.304Z,56.30
2022-11-16T13:45:55.192Z,58.63
2022-11-16T13:48:28.179Z,64.05
2022-11-16T13:50:58.052Z,64.62
2022-11-16T13:56:16.836Z,60.67
2022-11-16T13:59:00.708Z,58.78
2022-11-16T14:01:58.174Z,68.50
2022-11-16T14:04:53.405Z,62.08
2022-11-16T14:07:47.285Z,57.00
2022-11-16T14:10:47.629Z,102.45
2022-11-16T14:13:30.334Z,78.70
2022-11-16T14:16:24.537Z,276.85
2022-11-16T14:19:00.209Z,88.97
2022-11-16T14:21:59.396Z,58.93
2022-11-16T14:24:36.934Z,55.42
2022-11-16T14:27:09.588Z,59.35
2022-11-16T14:29:40.239Z,53.85
2022-11-16T14:32:26.120Z,50.50
2022-11-16T14:34:55.557Z,46.37
2022-11-16T14:37:24.549Z,52.65
2022-11-16T14:39:53.697Z,51.15
2022-11-16T14:42:27.099Z,53.90
2022-11-16T14:45:00.926Z,123.78
2022-11-16T14:47:30.635Z,154.57
2022-11-16T14:49:58.475Z,80.20
2022-11-16T14:52:35.712Z,77.47
2022-11-16T14:55:07.748Z,55.92
2022-11-16T14:57:35.570Z,57.22
2022-11-16T15:00:20.657Z,76.23
2022-11-16T15:02:57.617Z,73.53
2022-11-16T15:05:33.001Z,75.97
2022-11-16T15:08:01.439Z,74.57
2022-11-16T15:10:29.504Z,62.33
2022-11-16T15:12:57.515Z,58.90
2022-11-16T15:15:30.774Z,58.95
2022-11-16T15:17:58.690Z,51.70
2022-11-16T15:20:28.958Z,52.20
2022-11-16T15:23:00.959Z,52.70
2022-11-16T15:25:40.585Z,52.97
2022-11-16T15:28:17.479Z,47.72
2022-11-16T15:30:49.111Z,50.22
2022-11-16T15:33:18.616Z,49.25
2022-11-16T15:35:47.323Z,54.92
2022-11-16T15:38:28.545Z,51.70
2022-11-16T15:40:59.183Z,53.50
2022-11-16T15:43:31.696Z,52.60
2022-11-16T15:46:00.164Z,50.42
2022-11-16T15:48:28.763Z,59.08
2022-11-16T15:51:04.678Z,57.47
2022-11-16T15:53:45.302Z,65.78
2022-11-16T15:56:28.322Z,61.92
2022-11-16T15:58:59.643Z,58.60
2022-11-16T16:11:33.296Z,77.35
2022-11-16T16:20:49.383Z,54.73
2022-11-16T16:52:34.946Z,65.20
2022-11-16T16:55:39.995Z,61.67
2022-11-16T16:58:12.014Z,62.83
2022-11-16T17:00:40.584Z,67.28
2022-11-16T17:03:08.345Z,61.05
2022-11-16T17:05:35.878Z,58.50
2022-11-16T17:08:03.919Z,58.63
2022-11-16T17:10:31.653Z,59.60
2022-11-16T17:13:02.449Z,52.60
2022-11-16T17:15:30.754Z,64.97
2022-11-16T17:17:59.381Z,67.45
2022-11-16T17:20:27.261Z,63.63
2022-11-16T17:22:55.732Z,60.72
2022-11-16T17:25:23.387Z,61.78
2022-11-16T17:27:51.098Z,58.50
2022-11-16T17:30:19.156Z,55.40
2022-11-16T17:32:46.812Z,56.60
2022-11-16T17:35:14.347Z,55.35
2022-11-16T17:37:42.347Z,55.30
2022-11-16T17:40:10.418Z,58.85
2022-11-16T17:42:38.160Z,54.75
2022-11-16T17:45:06.671Z,52.07
2022-11-16T17:47:34.379Z,56.47
2022-11-16T17:50:02.180Z,53.10
2022-11-16T17:52:30.094Z,55.53
2022-11-16T17:54:57.576Z,61.17
2022-11-16T17:57:25.189Z,51.70
2022-11-16T17:59:53.070Z,55.05
2022-11-16T18:02:20.515Z,67.90
2022-11-16T18:04:51.276Z,100.10
2022-11-16T18:07:19.315Z,106.12
2022-11-16T18:09:47.036Z,67.17
2022-11-16T18:12:15.045Z,59.88
2022-11-16T18:14:59.900Z,48.38
2022-11-16T18:17:31.340Z,50.60
2022-11-16T18:19:59.100Z,50.80
2022-11-16T18:22:26.712Z,50.47
2022-11-16T18:24:54.398Z,53.10
2022-11-16T18:27:22.198Z,49.55
2022-11-16T18:29:50.126Z,51.17
2022-11-16T18:32:18.129Z,53.13
2022-11-16T18:34:45.919Z,55.17
2022-11-16T18:37:13.619Z,54.33
2022-11-16T18:39:41.752Z,55.28
2022-11-16T18:42:11.761Z,55.80
2022-11-16T18:44:39.330Z,54.45
2022-11-16T18:47:07.336Z,55.37
2022-11-16T18:49:34.869Z,51.25
2022-11-16T18:52:02.711Z,49.65
2022-11-16T18:54:30.706Z,50.92
2022-11-16T18:56:58.584Z,46.37
2022-11-16T18:59:26.397Z,51.07
2022-11-16T19:01:55.176Z,55.25
2022-11-16T19:04:22.955Z,53.85
2022-11-16T19:06:50.692Z,51.20
2022-11-16T19:09:19.085Z,52.08
2022-11-16T19:11:47.042Z,49.80
2022-11-16T19:14:14.762Z,51.45
2022-11-16T19:16:52.617Z,58.47
2022-11-16T19:19:22.097Z,60.45
2022-11-16T19:21:51.886Z,63.78
2022-11-16T19:24:19.577Z,60.03
2022-11-16T19:26:47.342Z,60.40
2022-11-16T19:29:15.718Z,67.12
2022-11-16T19:31:43.255Z,62.97
2022-11-16T19:34:13.291Z,66.75
2022-11-16T19:36:41.510Z,63.50
2022-11-16T19:39:09.292Z,74.30
2022-11-16T19:41:37.086Z,65.68
2022-11-16T19:44:04.881Z,68.40
2022-11-16T19:46:33.253Z,69.03
2022-11-16T19:49:01.237Z,73.07
2022-11-16T19:51:31.468Z,65.97
2022-11-16T19:54:00.249Z,67.45
2022-11-16T19:56:28.132Z,70.32
2022-11-16T19:58:56.350Z,62.33
2022-11-16T20:01:27.695Z,69.63
2022-11-16T20:03:57.971Z,69.32
2022-11-16T20:06:29.769Z,66.70
2022-11-16T20:09:08.352Z,68.22
2022-11-16T20:11:37.968Z,73.43
2022-11-16T20:14:08.095Z,70.10
2022-11-16T20:16:39.283Z,76.60
2022-11-16T20:19:08.939Z,77.93
2022-11-16T20:21:38.572Z,73.35
2022-11-16T20:24:08.678Z,72.43
2022-11-16T20:26:37.401Z,75.13
2022-11-16T20:29:05.224Z,65.87
2022-11-16T20:31:33.614Z,71.57
2022-11-16T20:34:03.678Z,63.00
2022-11-16T20:36:32.630Z,63.50
2022-11-16T20:39:04.785Z,66.90
2022-11-16T20:41:33.370Z,60.47
2022-11-16T20:44:01.729Z,62.05
2022-11-16T20:46:32.682Z,57.80
2022-11-16T20:49:03.623Z,62.88
2022-11-16T20:51:31.319Z,54.70
2022-11-16T20:53:59.238Z,61.58
2022-11-16T20:56:27.614Z,58.95
2022-11-16T20:58:55.146Z,59.75
2022-11-16T21:01:34.155Z,56.97
2022-11-16T21:04:04.450Z,57.10
2022-11-16T21:06:32.642Z,54.42
2022-11-16T21:09:00.990Z,51.30
2022-11-16T21:11:30.723Z,48.42
2022-11-16T21:14:16.025Z,47.67
2022-11-16T21:16:43.880Z,43.63
2022-11-16T21:19:11.990Z,43.90
2022-11-16T21:21:40.804Z,47.03
2022-11-16T21:24:09.277Z,45.22
2022-11-16T21:26:37.351Z,43.50
2022-11-16T21:29:05.346Z,39.07
2022-11-16T21:31:34.982Z,42.58
2022-11-16T21:34:02.705Z,37.80
2022-11-16T21:36:31.989Z,40.67
2022-11-16T21:39:00.014Z,38.40
2022-11-16T21:41:27.567Z,36.90
2022-11-16T21:43:55.256Z,35.30
2022-11-16T21:46:26.953Z,36.97
2022-11-16T21:48:56.434Z,37.30
2022-11-16T21:51:26.436Z,38.90
2022-11-16T21:53:54.307Z,36.20
2022-11-16T21:56:23.669Z,35.08
2022-11-16T21:58:55.386Z,36.03
2022-11-16T22:01:23.480Z,31.30
2022-11-16T22:04:11.519Z,27.85
2022-11-16T22:06:57.367Z,28.03
2022-11-16T22:09:25.206Z,27.30
2022-11-16T22:11:52.861Z,27.85
2022-11-16T22:14:20.284Z,27.27
2022-11-16T22:16:48.077Z,26.62
2022-11-16T22:19:15.505Z,28.60
2022-11-16T22:21:42.899Z,24.45
2022-11-16T22:24:10.624Z,27.58
2022-11-16T22:26:39.884Z,27.95
2022-11-16T22:29:07.357Z,25.48
2022-11-16T22:31:36.125Z,25.33
2022-11-16T22:34:03.568Z,23.85
2022-11-16T22:36:31.019Z,22.40
2022-11-16T22:38:58.933Z,22.30
2022-11-16T22:41:26.424Z,18.70
2022-11-16T22:43:53.881Z,22.52
2022-11-16T22:46:21.652Z,21.45
2022-11-16T22:48:49.126Z,21.12
2022-11-16T22:51:26.229Z,21.98
2022-11-16T22:53:55.240Z,23.00
2022-11-16T22:56:22.790Z,22.02
2022-11-16T22:58:50.688Z,21.05
2022-11-16T23:01:18.804Z,18.52
2022-11-16T23:03:46.550Z,20.80
2022-11-16T23:06:14.269Z,18.33
2022-11-16T23:08:42.995Z,17.50
2022-11-16T23:11:34.736Z,17.23
2022-11-16T23:14:22.194Z,14.60
2022-11-16T23:16:49.823Z,13.38
2022-11-16T23:19:37.376Z,11.70
2022-11-16T23:22:23.866Z,12.07
2022-11-16T23:25:10.145Z,14.60
2022-11-16T23:27:51.339Z,15.10
2022-11-16T23:30:19.175Z,15.35
2022-11-16T23:32:46.738Z,15.47
2022-11-16T23:35:14.263Z,16.12
2022-11-16T23:38:03.043Z,15.85
2022-11-16T23:40:34.030Z,16.67
2022-11-16T23:43:20.385Z,18.40
2022-11-16T23:45:47.957Z,18.60
2022-11-16T23:48:17.198Z,17.52
2022-11-16T23:50:45.842Z,16.80
2022-11-16T23:53:13.581Z,20.25
2022-11-16T23:55:41.469Z,18.92
2022-11-16T23:58:13.660Z,20.03
